sensor_id;sensor_type;location;lat;lon;timestamp;temperature;humidity
66271;DHT22;53063;39.614;8.814;2022-10-31T00:01:28;17.00;76.20
66271;DHT22;53063;39.614;8.814;2022-10-31T00:03:54;16.90;76.50
66271;DHT22;53063;39.614;8.814;2022-10-31T00:06:20;16.80;76.80
66271;DHT22;53063;39.614;8.814;2022-10-31T00:08:46;16.90;76.60
66271;DHT22;53063;39.614;8.814;2022-10-31T00:11:12;16.90;76.70
66271;DHT22;53063;39.614;8.814;2022-10-31T00:13:38;16.80;76.90
66271;DHT22;53063;39.614;8.814;2022-10-31T00:16:04;16.80;76.90
66271;DHT22;53063;39.614;8.814;2022-10-31T00:18:30;16.80;76.90
66271;DHT22;53063;39.614;8.814;2022-10-31T00:20:59;16.80;76.70
66271;DHT22;53063;39.614;8.814;2022-10-31T00:23:25;16.80;76.50
66271;DHT22;53063;39.614;8.814;2022-10-31T00:25:51;16.80;76.40
66271;DHT22;53063;39.614;8.814;2022-10-31T00:28:17;16.80;75.80
66271;DHT22;53063;39.614;8.814;2022-10-31T00:30:43;16.80;75.70
66271;DHT22;53063;39.614;8.814;2022-10-31T00:33:09;16.80;75.30
66271;DHT22;53063;39.614;8.814;2022-10-31T00:35:36;16.70;75.10
66271;DHT22;53063;39.614;8.814;2022-10-31T00:38:01;16.70;75.40
66271;DHT22;53063;39.614;8.814;2022-10-31T00:40:27;16.70;75.40
66271;DHT22;53063;39.614;8.814;2022-10-31T00:42:53;16.70;75.40
66271;DHT22;53063;39.614;8.814;2022-10-31T00:45:19;16.70;75.70
66271;DHT22;53063;39.614;8.814;2022-10-31T00:47:45;16.70;75.60
66271;DHT22;53063;39.614;8.814;2022-10-31T00:50:10;16.70;75.50
66271;DHT22;53063;39.614;8.814;2022-10-31T00:52:37;16.70;75.40
66271;DHT22;53063;39.614;8.814;2022-10-31T00:55:03;16.60;75.80
66271;DHT22;53063;39.614;8.814;2022-10-31T00:57:29;16.60;75.80
66271;DHT22;53063;39.614;8.814;2022-10-31T00:59:54;16.50;76.00
66271;DHT22;53063;39.614;8.814;2022-10-31T01:02:20;16.40;75.80
66271;DHT22;53063;39.614;8.814;2022-10-31T01:04:46;16.50;75.80
66271;DHT22;53063;39.614;8.814;2022-10-31T01:07:12;16.50;75.10
66271;DHT22;53063;39.614;8.814;2022-10-31T01:09:39;16.40;74.70
66271;DHT22;53063;39.614;8.814;2022-10-31T01:12:05;16.40;74.50
66271;DHT22;53063;39.614;8.814;2022-10-31T01:14:31;16.40;74.50
66271;DHT22;53063;39.614;8.814;2022-10-31T01:16:56;16.40;74.50
66271;DHT22;53063;39.614;8.814;2022-10-31T01:19:22;16.40;74.30
66271;DHT22;53063;39.614;8.814;2022-10-31T01:21:48;16.40;74.30
66271;DHT22;53063;39.614;8.814;2022-10-31T01:24:14;16.30;73.90
66271;DHT22;53063;39.614;8.814;2022-10-31T01:26:40;16.30;73.70
66271;DHT22;53063;39.614;8.814;2022-10-31T01:29:06;16.30;73.60
66271;DHT22;53063;39.614;8.814;2022-10-31T01:31:35;16.30;73.70
66271;DHT22;53063;39.614;8.814;2022-10-31T01:34:01;16.30;73.90
66271;DHT22;53063;39.614;8.814;2022-10-31T01:36:29;16.30;74.00
66271;DHT22;53063;39.614;8.814;2022-10-31T01:38:56;16.30;74.00
66271;DHT22;53063;39.614;8.814;2022-10-31T01:41:23;16.30;73.70
66271;DHT22;53063;39.614;8.814;2022-10-31T01:43:51;16.40;73.80
66271;DHT22;53063;39.614;8.814;2022-10-31T01:48:49;16.40;74.00
66271;DHT22;53063;39.614;8.814;2022-10-31T01:51:15;16.30;74.40
66271;DHT22;53063;39.614;8.814;2022-10-31T01:53:42;16.40;74.70
66271;DHT22;53063;39.614;8.814;2022-10-31T01:56:10;16.40;74.70
66271;DHT22;53063;39.614;8.814;2022-10-31T01:58:37;16.40;74.80
66271;DHT22;53063;39.614;8.814;2022-10-31T02:01:02;16.30;75.10
66271;DHT22;53063;39.614;8.814;2022-10-31T02:03:28;16.30;75.50
66271;DHT22;53063;39.614;8.814;2022-10-31T02:05:56;16.30;75.40
66271;DHT22;53063;39.614;8.814;2022-10-31T02:08:32;16.40;75.40
66271;DHT22;53063;39.614;8.814;2022-10-31T02:10:59;16.20;76.00
66271;DHT22;53063;39.614;8.814;2022-10-31T02:13:25;16.30;76.40
66271;DHT22;53063;39.614;8.814;2022-10-31T02:15:54;16.20;76.50
66271;DHT22;53063;39.614;8.814;2022-10-31T02:18:20;16.20;76.80
66271;DHT22;53063;39.614;8.814;2022-10-31T02:35:54;16.20;77.40
66271;DHT22;53063;39.614;8.814;2022-10-31T02:40:52;16.20;77.80
66271;DHT22;53063;39.614;8.814;2022-10-31T02:43:35;16.10;77.90
66271;DHT22;53063;39.614;8.814;2022-10-31T02:46:19;16.10;77.90
66271;DHT22;53063;39.614;8.814;2022-10-31T02:48:48;16.10;78.30
66271;DHT22;53063;39.614;8.814;2022-10-31T02:51:18;16.00;78.30
66271;DHT22;53063;39.614;8.814;2022-10-31T02:53:43;16.00;78.60
66271;DHT22;53063;39.614;8.814;2022-10-31T02:56:16;16.00;78.30
66271;DHT22;53063;39.614;8.814;2022-10-31T02:59:05;16.00;78.50
66271;DHT22;53063;39.614;8.814;2022-10-31T03:09:35;16.00;78.20
66271;DHT22;53063;39.614;8.814;2022-10-31T03:14:38;15.90;78.20
66271;DHT22;53063;39.614;8.814;2022-10-31T03:17:07;15.90;78.30
66271;DHT22;53063;39.614;8.814;2022-10-31T03:19:41;15.90;78.50
66271;DHT22;53063;39.614;8.814;2022-10-31T03:22:14;15.80;78.50
66271;DHT22;53063;39.614;8.814;2022-10-31T03:24:42;15.80;78.70
66271;DHT22;53063;39.614;8.814;2022-10-31T03:27:21;15.80;79.00
66271;DHT22;53063;39.614;8.814;2022-10-31T03:29:48;15.80;78.90
66271;DHT22;53063;39.614;8.814;2022-10-31T03:32:23;15.80;78.80
66271;DHT22;53063;39.614;8.814;2022-10-31T03:34:51;15.70;78.80
66271;DHT22;53063;39.614;8.814;2022-10-31T03:37:19;15.70;78.90
66271;DHT22;53063;39.614;8.814;2022-10-31T03:39:46;15.70;79.00
66271;DHT22;53063;39.614;8.814;2022-10-31T03:42:25;15.60;78.70
66271;DHT22;53063;39.614;8.814;2022-10-31T03:44:57;15.70;78.80
66271;DHT22;53063;39.614;8.814;2022-10-31T03:47:25;15.70;78.20
66271;DHT22;53063;39.614;8.814;2022-10-31T03:49:52;15.70;77.70
66271;DHT22;53063;39.614;8.814;2022-10-31T03:54:51;15.00;78.40
66271;DHT22;53063;39.614;8.814;2022-10-31T03:57:20;14.60;80.20
66271;DHT22;53063;39.614;8.814;2022-10-31T03:59:48;14.40;81.70
66271;DHT22;53063;39.614;8.814;2022-10-31T04:02:18;14.40;82.60
66271;DHT22;53063;39.614;8.814;2022-10-31T04:04:45;14.30;82.90
66271;DHT22;53063;39.614;8.814;2022-10-31T04:07:12;14.20;83.50
66271;DHT22;53063;39.614;8.814;2022-10-31T04:09:40;14.20;83.50
66271;DHT22;53063;39.614;8.814;2022-10-31T04:12:07;14.10;83.60
66271;DHT22;53063;39.614;8.814;2022-10-31T04:14:53;14.00;83.90
66271;DHT22;53063;39.614;8.814;2022-10-31T04:17:21;13.90;84.20
66271;DHT22;53063;39.614;8.814;2022-10-31T04:19:48;13.90;84.30
66271;DHT22;53063;39.614;8.814;2022-10-31T04:22:13;14.20;83.40
66271;DHT22;53063;39.614;8.814;2022-10-31T04:24:40;14.30;82.20
66271;DHT22;53063;39.614;8.814;2022-10-31T04:27:07;14.70;80.70
66271;DHT22;53063;39.614;8.814;2022-10-31T04:29:33;14.90;78.80
66271;DHT22;53063;39.614;8.814;2022-10-31T04:31:59;15.10;77.10
66271;DHT22;53063;39.614;8.814;2022-10-31T04:34:25;15.10;76.20
66271;DHT22;53063;39.614;8.814;2022-10-31T04:36:51;15.20;75.90
66271;DHT22;53063;39.614;8.814;2022-10-31T04:39:17;15.20;75.70
66271;DHT22;53063;39.614;8.814;2022-10-31T04:42:05;15.30;75.40
66271;DHT22;53063;39.614;8.814;2022-10-31T04:44:31;15.30;75.10
66271;DHT22;53063;39.614;8.814;2022-10-31T04:47:00;15.30;75.10
66271;DHT22;53063;39.614;8.814;2022-10-31T04:49:26;15.40;74.80
66271;DHT22;53063;39.614;8.814;2022-10-31T04:51:52;15.40;74.80
66271;DHT22;53063;39.614;8.814;2022-10-31T04:54:18;15.40;74.60
66271;DHT22;53063;39.614;8.814;2022-10-31T04:57:02;15.40;74.40
66271;DHT22;53063;39.614;8.814;2022-10-31T04:59:30;15.40;74.10
66271;DHT22;53063;39.614;8.814;2022-10-31T05:01:58;15.40;74.10
66271;DHT22;53063;39.614;8.814;2022-10-31T05:04:38;15.40;73.90
66271;DHT22;53063;39.614;8.814;2022-10-31T05:07:04;15.40;73.70
66271;DHT22;53063;39.614;8.814;2022-10-31T05:09:30;15.40;73.30
66271;DHT22;53063;39.614;8.814;2022-10-31T05:11:56;15.40;73.00
66271;DHT22;53063;39.614;8.814;2022-10-31T05:14:41;15.40;73.10
66271;DHT22;53063;39.614;8.814;2022-10-31T05:17:30;15.50;73.00
66271;DHT22;53063;39.614;8.814;2022-10-31T05:20:24;15.50;72.60
66271;DHT22;53063;39.614;8.814;2022-10-31T05:23:15;15.50;72.50
66271;DHT22;53063;39.614;8.814;2022-10-31T05:25:41;15.50;72.60
66271;DHT22;53063;39.614;8.814;2022-10-31T05:28:07;15.50;72.60
66271;DHT22;53063;39.614;8.814;2022-10-31T05:30:33;15.50;72.40
66271;DHT22;53063;39.614;8.814;2022-10-31T05:33:00;15.50;72.30
66271;DHT22;53063;39.614;8.814;2022-10-31T05:36:01;15.50;72.40
66271;DHT22;53063;39.614;8.814;2022-10-31T05:38:33;15.60;72.30
66271;DHT22;53063;39.614;8.814;2022-10-31T05:41:08;15.50;72.60
66271;DHT22;53063;39.614;8.814;2022-10-31T05:43:35;15.50;73.00
66271;DHT22;53063;39.614;8.814;2022-10-31T05:46:04;15.50;73.10
66271;DHT22;53063;39.614;8.814;2022-10-31T05:49:04;15.50;73.50
66271;DHT22;53063;39.614;8.814;2022-10-31T05:51:49;15.60;73.20
66271;DHT22;53063;39.614;8.814;2022-10-31T05:54:15;15.50;73.50
66271;DHT22;53063;39.614;8.814;2022-10-31T05:56:42;15.60;73.40
66271;DHT22;53063;39.614;8.814;2022-10-31T05:59:08;15.70;73.20
66271;DHT22;53063;39.614;8.814;2022-10-31T06:01:34;15.60;73.30
66271;DHT22;53063;39.614;8.814;2022-10-31T06:04:04;15.60;73.40
66271;DHT22;53063;39.614;8.814;2022-10-31T06:06:31;15.70;73.20
66271;DHT22;53063;39.614;8.814;2022-10-31T06:08:58;15.80;72.80
66271;DHT22;53063;39.614;8.814;2022-10-31T06:11:25;15.80;72.40
66271;DHT22;53063;39.614;8.814;2022-10-31T06:14:03;15.80;72.20
66271;DHT22;53063;39.614;8.814;2022-10-31T06:16:55;15.90;72.30
66271;DHT22;53063;39.614;8.814;2022-10-31T06:19:41;16.00;71.80
66271;DHT22;53063;39.614;8.814;2022-10-31T06:22:08;15.90;71.30
66271;DHT22;53063;39.614;8.814;2022-10-31T06:24:37;15.80;71.60
66271;DHT22;53063;39.614;8.814;2022-10-31T06:27:18;15.40;72.90
66271;DHT22;53063;39.614;8.814;2022-10-31T06:29:44;15.00;74.00
66271;DHT22;53063;39.614;8.814;2022-10-31T06:32:17;14.80;75.50
66271;DHT22;53063;39.614;8.814;2022-10-31T06:34:44;14.60;76.70
66271;DHT22;53063;39.614;8.814;2022-10-31T06:37:13;14.60;77.40
66271;DHT22;53063;39.614;8.814;2022-10-31T06:39:43;14.50;77.80
66271;DHT22;53063;39.614;8.814;2022-10-31T06:42:10;14.50;78.40
66271;DHT22;53063;39.614;8.814;2022-10-31T06:44:36;14.50;78.60
66271;DHT22;53063;39.614;8.814;2022-10-31T06:47:20;14.60;78.60
66271;DHT22;53063;39.614;8.814;2022-10-31T06:50:04;14.80;78.30
66271;DHT22;53063;39.614;8.814;2022-10-31T06:52:30;15.20;77.50
66271;DHT22;53063;39.614;8.814;2022-10-31T06:54:56;15.50;76.30
66271;DHT22;53063;39.614;8.814;2022-10-31T06:57:22;16.00;75.10
66271;DHT22;53063;39.614;8.814;2022-10-31T06:59:48;16.20;74.00
66271;DHT22;53063;39.614;8.814;2022-10-31T07:02:18;16.60;73.30
66271;DHT22;53063;39.614;8.814;2022-10-31T07:04:43;16.90;71.20
66271;DHT22;53063;39.614;8.814;2022-10-31T07:07:12;16.90;71.00
66271;DHT22;53063;39.614;8.814;2022-10-31T07:09:38;17.50;69.60
66271;DHT22;53063;39.614;8.814;2022-10-31T07:12:05;18.10;67.40
66271;DHT22;53063;39.614;8.814;2022-10-31T07:14:35;18.60;65.80
66271;DHT22;53063;39.614;8.814;2022-10-31T07:17:01;18.80;64.60
66271;DHT22;53063;39.614;8.814;2022-10-31T07:19:33;18.40;66.20
66271;DHT22;53063;39.614;8.814;2022-10-31T07:21:59;18.70;66.30
66271;DHT22;53063;39.614;8.814;2022-10-31T07:24:27;19.20;64.60
66271;DHT22;53063;39.614;8.814;2022-10-31T07:27:22;20.00;63.50
66271;DHT22;53063;39.614;8.814;2022-10-31T07:29:48;21.10;58.10
66271;DHT22;53063;39.614;8.814;2022-10-31T07:32:15;20.90;58.10
66271;DHT22;53063;39.614;8.814;2022-10-31T07:34:47;22.10;55.80
66271;DHT22;53063;39.614;8.814;2022-10-31T07:37:21;23.20;52.80
66271;DHT22;53063;39.614;8.814;2022-10-31T07:39:47;23.90;50.60
66271;DHT22;53063;39.614;8.814;2022-10-31T07:42:13;24.00;50.00
66271;DHT22;53063;39.614;8.814;2022-10-31T07:44:42;24.30;50.10
66271;DHT22;53063;39.614;8.814;2022-10-31T07:47:27;24.70;48.40
66271;DHT22;53063;39.614;8.814;2022-10-31T07:50:12;24.80;48.70
66271;DHT22;53063;39.614;8.814;2022-10-31T07:55:52;25.00;47.40
66271;DHT22;53063;39.614;8.814;2022-10-31T07:58:18;24.70;48.80
66271;DHT22;53063;39.614;8.814;2022-10-31T08:00:45;25.00;48.00
66271;DHT22;53063;39.614;8.814;2022-10-31T08:03:15;25.40;46.90
66271;DHT22;53063;39.614;8.814;2022-10-31T08:06:00;26.10;45.60
66271;DHT22;53063;39.614;8.814;2022-10-31T08:08:41;26.70;45.10
66271;DHT22;53063;39.614;8.814;2022-10-31T08:11:08;27.70;43.00
66271;DHT22;53063;39.614;8.814;2022-10-31T08:13:34;27.70;42.80
66271;DHT22;53063;39.614;8.814;2022-10-31T08:16:00;27.20;44.60
66271;DHT22;53063;39.614;8.814;2022-10-31T08:18:31;27.20;44.30
66271;DHT22;53063;39.614;8.814;2022-10-31T08:20:57;27.10;43.20
66271;DHT22;53063;39.614;8.814;2022-10-31T08:23:23;27.00;44.20
66271;DHT22;53063;39.614;8.814;2022-10-31T08:25:52;26.60;44.50
66271;DHT22;53063;39.614;8.814;2022-10-31T08:28:18;27.40;43.80
66271;DHT22;53063;39.614;8.814;2022-10-31T08:30:47;27.80;42.50
66271;DHT22;53063;39.614;8.814;2022-10-31T08:33:31;27.40;43.70
66271;DHT22;53063;39.614;8.814;2022-10-31T08:36:16;27.90;42.90
66271;DHT22;53063;39.614;8.814;2022-10-31T08:38:56;28.00;42.50
66271;DHT22;53063;39.614;8.814;2022-10-31T08:41:22;28.10;41.90
66271;DHT22;53063;39.614;8.814;2022-10-31T08:43:48;28.70;40.90
66271;DHT22;53063;39.614;8.814;2022-10-31T08:46:15;27.80;42.20
66271;DHT22;53063;39.614;8.814;2022-10-31T08:48:42;28.60;41.60
66271;DHT22;53063;39.614;8.814;2022-10-31T08:51:09;28.20;42.60
66271;DHT22;53063;39.614;8.814;2022-10-31T08:53:35;28.20;43.00
66271;DHT22;53063;39.614;8.814;2022-10-31T08:56:25;28.60;41.90
66271;DHT22;53063;39.614;8.814;2022-10-31T08:58:52;30.00;40.50
66271;DHT22;53063;39.614;8.814;2022-10-31T09:01:24;29.80;39.60
66271;DHT22;53063;39.614;8.814;2022-10-31T09:03:50;30.20;39.80
66271;DHT22;53063;39.614;8.814;2022-10-31T09:06:16;29.80;40.00
66271;DHT22;53063;39.614;8.814;2022-10-31T09:08:42;29.00;41.50
66271;DHT22;53063;39.614;8.814;2022-10-31T09:11:07;29.50;40.40
66271;DHT22;53063;39.614;8.814;2022-10-31T09:13:52;29.60;40.20
66271;DHT22;53063;39.614;8.814;2022-10-31T09:16:36;30.20;39.60
66271;DHT22;53063;39.614;8.814;2022-10-31T09:19:04;29.80;38.80
66271;DHT22;53063;39.614;8.814;2022-10-31T09:21:30;29.90;38.40
66271;DHT22;53063;39.614;8.814;2022-10-31T09:23:57;30.40;38.20
66271;DHT22;53063;39.614;8.814;2022-10-31T09:26:24;29.10;39.40
66271;DHT22;53063;39.614;8.814;2022-10-31T09:29:08;29.60;39.30
66271;DHT22;53063;39.614;8.814;2022-10-31T09:31:36;28.80;39.80
66271;DHT22;53063;39.614;8.814;2022-10-31T09:34:21;29.70;39.30
66271;DHT22;53063;39.614;8.814;2022-10-31T09:37:04;30.20;38.10
66271;DHT22;53063;39.614;8.814;2022-10-31T09:39:32;29.60;39.00
66271;DHT22;53063;39.614;8.814;2022-10-31T09:50:21;29.90;38.50
66271;DHT22;53063;39.614;8.814;2022-10-31T09:52:51;27.80;41.60
66271;DHT22;53063;39.614;8.814;2022-10-31T09:55:22;26.70;43.00
66271;DHT22;53063;39.614;8.814;2022-10-31T09:57:51;25.70;44.50
66271;DHT22;53063;39.614;8.814;2022-10-31T10:00:18;25.10;46.60
66271;DHT22;53063;39.614;8.814;2022-10-31T10:02:53;25.10;46.10
66271;DHT22;53063;39.614;8.814;2022-10-31T10:05:24;24.90;45.90
66271;DHT22;53063;39.614;8.814;2022-10-31T10:08:10;25.10;46.20
66271;DHT22;53063;39.614;8.814;2022-10-31T10:11:03;25.30;46.00
66271;DHT22;53063;39.614;8.814;2022-10-31T10:14:08;24.80;47.60
66271;DHT22;53063;39.614;8.814;2022-10-31T10:16:41;24.90;46.60
66271;DHT22;53063;39.614;8.814;2022-10-31T10:21:48;25.30;45.90
66271;DHT22;53063;39.614;8.814;2022-10-31T10:26:43;25.90;45.90
66271;DHT22;53063;39.614;8.814;2022-10-31T10:31:48;25.80;44.80
66271;DHT22;53063;39.614;8.814;2022-10-31T10:36:49;25.80;44.90
66271;DHT22;53063;39.614;8.814;2022-10-31T10:39:20;25.20;43.60
66271;DHT22;53063;39.614;8.814;2022-10-31T10:41:47;25.30;43.10
66271;DHT22;53063;39.614;8.814;2022-10-31T10:44:33;25.00;43.60
66271;DHT22;53063;39.614;8.814;2022-10-31T10:47:20;25.50;42.80
66271;DHT22;53063;39.614;8.814;2022-10-31T10:50:10;25.20;43.80
66271;DHT22;53063;39.614;8.814;2022-10-31T10:58:08;25.50;44.20
66271;DHT22;53063;39.614;8.814;2022-10-31T11:00:29;25.60;43.10
66271;DHT22;53063;39.614;8.814;2022-10-31T11:02:55;25.20;44.80
66271;DHT22;53063;39.614;8.814;2022-10-31T11:05:28;25.60;45.00
66271;DHT22;53063;39.614;8.814;2022-10-31T11:07:54;25.70;44.50
66271;DHT22;53063;39.614;8.814;2022-10-31T11:10:19;25.40;44.90
66271;DHT22;53063;39.614;8.814;2022-10-31T11:12:57;25.20;42.40
66271;DHT22;53063;39.614;8.814;2022-10-31T11:15:24;25.40;42.90
66271;DHT22;53063;39.614;8.814;2022-10-31T11:17:51;25.40;41.90
66271;DHT22;53063;39.614;8.814;2022-10-31T11:22:44;25.50;44.20
66271;DHT22;53063;39.614;8.814;2022-10-31T11:25:24;25.40;45.10
66271;DHT22;53063;39.614;8.814;2022-10-31T11:28:03;25.70;44.20
66271;DHT22;53063;39.614;8.814;2022-10-31T11:30:30;25.50;44.70
66271;DHT22;53063;39.614;8.814;2022-10-31T11:32:56;25.50;44.70
66271;DHT22;53063;39.614;8.814;2022-10-31T11:35:22;25.60;43.50
66271;DHT22;53063;39.614;8.814;2022-10-31T11:37:49;25.10;44.90
66271;DHT22;53063;39.614;8.814;2022-10-31T11:40:17;25.10;43.90
66271;DHT22;53063;39.614;8.814;2022-10-31T11:42:43;25.30;42.50
66271;DHT22;53063;39.614;8.814;2022-10-31T11:45:19;25.70;42.60
66271;DHT22;53063;39.614;8.814;2022-10-31T11:47:53;25.70;42.20
66271;DHT22;53063;39.614;8.814;2022-10-31T11:50:21;25.70;42.50
66271;DHT22;53063;39.614;8.814;2022-10-31T11:52:48;25.80;42.60
66271;DHT22;53063;39.614;8.814;2022-10-31T11:55:16;25.60;43.40
66271;DHT22;53063;39.614;8.814;2022-10-31T11:57:47;25.60;42.90
66271;DHT22;53063;39.614;8.814;2022-10-31T12:00:23;25.90;43.20
66271;DHT22;53063;39.614;8.814;2022-10-31T12:02:50;26.30;43.40
66271;DHT22;53063;39.614;8.814;2022-10-31T12:05:25;26.20;42.50
66271;DHT22;53063;39.614;8.814;2022-10-31T12:07:54;25.90;43.70
66271;DHT22;53063;39.614;8.814;2022-10-31T12:10:21;26.10;43.60
66271;DHT22;53063;39.614;8.814;2022-10-31T12:12:55;26.40;42.80
66271;DHT22;53063;39.614;8.814;2022-10-31T12:15:33;26.00;43.40
66271;DHT22;53063;39.614;8.814;2022-10-31T12:34:06;26.20;42.60
66271;DHT22;53063;39.614;8.814;2022-10-31T12:41:52;25.50;44.60
66271;DHT22;53063;39.614;8.814;2022-10-31T13:02:28;25.20;43.60
66271;DHT22;53063;39.614;8.814;2022-10-31T13:12:21;25.70;42.80
66271;DHT22;53063;39.614;8.814;2022-10-31T13:14:52;25.90;42.80
66271;DHT22;53063;39.614;8.814;2022-10-31T13:17:22;26.30;41.40
66271;DHT22;53063;39.614;8.814;2022-10-31T13:19:49;26.30;42.30
66271;DHT22;53063;39.614;8.814;2022-10-31T13:22:16;26.40;42.70
66271;DHT22;53063;39.614;8.814;2022-10-31T13:24:58;26.10;42.40
66271;DHT22;53063;39.614;8.814;2022-10-31T13:27:26;25.90;42.40
66271;DHT22;53063;39.614;8.814;2022-10-31T13:30:00;25.60;42.80
66271;DHT22;53063;39.614;8.814;2022-10-31T13:32:28;25.70;43.30
66271;DHT22;53063;39.614;8.814;2022-10-31T13:34:55;25.70;42.90
66271;DHT22;53063;39.614;8.814;2022-10-31T13:40:03;26.00;42.80
66271;DHT22;53063;39.614;8.814;2022-10-31T13:42:41;25.90;42.20
66271;DHT22;53063;39.614;8.814;2022-10-31T13:45:13;25.50;43.10
66271;DHT22;53063;39.614;8.814;2022-10-31T13:47:40;25.70;42.90
66271;DHT22;53063;39.614;8.814;2022-10-31T13:50:20;25.40;44.10
66271;DHT22;53063;39.614;8.814;2022-10-31T13:52:46;25.60;43.60
66271;DHT22;53063;39.614;8.814;2022-10-31T13:55:34;25.40;43.90
66271;DHT22;53063;39.614;8.814;2022-10-31T13:58:00;25.60;43.10
66271;DHT22;53063;39.614;8.814;2022-10-31T14:00:29;25.50;43.90
66271;DHT22;53063;39.614;8.814;2022-10-31T14:03:00;25.30;44.20
66271;DHT22;53063;39.614;8.814;2022-10-31T14:05:32;25.30;44.00
66271;DHT22;53063;39.614;8.814;2022-10-31T14:07:59;25.10;44.30
66271;DHT22;53063;39.614;8.814;2022-10-31T14:12:52;25.10;44.60
66271;DHT22;53063;39.614;8.814;2022-10-31T14:15:22;24.90;45.20
66271;DHT22;53063;39.614;8.814;2022-10-31T14:17:53;24.70;46.10
66271;DHT22;53063;39.614;8.814;2022-10-31T14:20:39;24.80;45.70
66271;DHT22;53063;39.614;8.814;2022-10-31T14:23:12;24.80;45.60
66271;DHT22;53063;39.614;8.814;2022-10-31T14:25:38;24.70;45.60
66271;DHT22;53063;39.614;8.814;2022-10-31T14:30:53;24.50;45.90
66271;DHT22;53063;39.614;8.814;2022-10-31T14:33:19;24.40;46.30
66271;DHT22;53063;39.614;8.814;2022-10-31T14:35:53;24.50;46.40
66271;DHT22;53063;39.614;8.814;2022-10-31T14:51:36;24.20;47.30
66271;DHT22;53063;39.614;8.814;2022-10-31T14:54:05;24.00;47.80
66271;DHT22;53063;39.614;8.814;2022-10-31T14:56:32;24.00;47.20
66271;DHT22;53063;39.614;8.814;2022-10-31T14:58:59;23.90;47.90
66271;DHT22;53063;39.614;8.814;2022-10-31T15:03:54;23.80;47.20
66271;DHT22;53063;39.614;8.814;2022-10-31T15:06:23;23.80;47.00
66271;DHT22;53063;39.614;8.814;2022-10-31T15:08:50;23.60;47.70
66271;DHT22;53063;39.614;8.814;2022-10-31T15:11:20;23.40;47.70
66271;DHT22;53063;39.614;8.814;2022-10-31T15:13:50;23.50;47.50
66271;DHT22;53063;39.614;8.814;2022-10-31T15:16:17;23.40;47.60
66271;DHT22;53063;39.614;8.814;2022-10-31T15:18:46;23.10;48.00
66271;DHT22;53063;39.614;8.814;2022-10-31T15:21:14;23.10;48.60
66271;DHT22;53063;39.614;8.814;2022-10-31T15:23:40;23.20;48.50
66271;DHT22;53063;39.614;8.814;2022-10-31T15:26:06;23.10;48.10
66271;DHT22;53063;39.614;8.814;2022-10-31T15:28:32;22.90;48.60
66271;DHT22;53063;39.614;8.814;2022-10-31T15:30:58;23.00;48.50
66271;DHT22;53063;39.614;8.814;2022-10-31T15:33:31;22.70;48.70
66271;DHT22;53063;39.614;8.814;2022-10-31T15:35:58;22.80;48.60
66271;DHT22;53063;39.614;8.814;2022-10-31T15:38:24;22.80;48.00
66271;DHT22;53063;39.614;8.814;2022-10-31T15:40:51;22.70;47.40
66271;DHT22;53063;39.614;8.814;2022-10-31T15:43:18;22.60;46.80
66271;DHT22;53063;39.614;8.814;2022-10-31T15:45:44;22.70;46.10
66271;DHT22;53063;39.614;8.814;2022-10-31T15:48:28;22.60;46.20
66271;DHT22;53063;39.614;8.814;2022-10-31T15:50:57;22.60;46.40
66271;DHT22;53063;39.614;8.814;2022-10-31T15:53:25;22.60;45.90
66271;DHT22;53063;39.614;8.814;2022-10-31T15:55:53;22.40;46.10
66271;DHT22;53063;39.614;8.814;2022-10-31T15:58:20;22.30;45.60
66271;DHT22;53063;39.614;8.814;2022-10-31T16:00:56;22.10;45.90
66271;DHT22;53063;39.614;8.814;2022-10-31T16:03:24;22.10;45.50
66271;DHT22;53063;39.614;8.814;2022-10-31T16:05:51;22.00;44.90
66271;DHT22;53063;39.614;8.814;2022-10-31T16:10:49;21.80;45.20
66271;DHT22;53063;39.614;8.814;2022-10-31T16:13:15;21.70;45.70
66271;DHT22;53063;39.614;8.814;2022-10-31T16:15:51;21.70;45.70
66271;DHT22;53063;39.614;8.814;2022-10-31T16:18:18;21.50;46.30
66271;DHT22;53063;39.614;8.814;2022-10-31T16:20:48;21.50;46.60
66271;DHT22;53063;39.614;8.814;2022-10-31T16:23:16;21.40;47.10
66271;DHT22;53063;39.614;8.814;2022-10-31T16:25:42;21.40;47.00
66271;DHT22;53063;39.614;8.814;2022-10-31T16:28:24;21.40;47.20
66271;DHT22;53063;39.614;8.814;2022-10-31T16:30:50;21.30;47.20
66271;DHT22;53063;39.614;8.814;2022-10-31T16:35:56;21.30;47.00
66271;DHT22;53063;39.614;8.814;2022-10-31T16:38:22;21.10;47.50
66271;DHT22;53063;39.614;8.814;2022-10-31T16:40:48;21.10;47.60
66271;DHT22;53063;39.614;8.814;2022-10-31T16:43:15;21.00;48.20
66271;DHT22;53063;39.614;8.814;2022-10-31T16:45:48;20.80;48.60
66271;DHT22;53063;39.614;8.814;2022-10-31T16:48:15;20.90;48.90
66271;DHT22;53063;39.614;8.814;2022-10-31T16:50:42;20.90;49.30
66271;DHT22;53063;39.614;8.814;2022-10-31T16:53:08;20.70;50.30
66271;DHT22;53063;39.614;8.814;2022-10-31T16:55:34;20.60;51.20
66271;DHT22;53063;39.614;8.814;2022-10-31T16:58:06;20.60;52.70
66271;DHT22;53063;39.614;8.814;2022-10-31T17:00:35;20.30;53.80
66271;DHT22;53063;39.614;8.814;2022-10-31T17:03:01;20.30;54.90
66271;DHT22;53063;39.614;8.814;2022-10-31T17:05:26;20.20;55.20
66271;DHT22;53063;39.614;8.814;2022-10-31T17:07:57;20.30;56.00
66271;DHT22;53063;39.614;8.814;2022-10-31T17:10:23;20.10;56.60
66271;DHT22;53063;39.614;8.814;2022-10-31T17:12:49;20.20;57.40
66271;DHT22;53063;39.614;8.814;2022-10-31T17:15:25;20.10;58.90
66271;DHT22;53063;39.614;8.814;2022-10-31T17:17:52;19.90;59.30
66271;DHT22;53063;39.614;8.814;2022-10-31T17:22:43;19.80;60.40
66271;DHT22;53063;39.614;8.814;2022-10-31T17:25:12;19.70;61.00
66271;DHT22;53063;39.614;8.814;2022-10-31T17:27:39;19.70;61.50
66271;DHT22;53063;39.614;8.814;2022-10-31T17:30:05;19.70;61.80
66271;DHT22;53063;39.614;8.814;2022-10-31T17:32:32;19.70;62.00
66271;DHT22;53063;39.614;8.814;2022-10-31T17:34:58;19.70;62.50
66271;DHT22;53063;39.614;8.814;2022-10-31T17:37:23;19.60;63.00
66271;DHT22;53063;39.614;8.814;2022-10-31T17:39:49;19.60;63.40
66271;DHT22;53063;39.614;8.814;2022-10-31T17:42:15;19.60;63.70
66271;DHT22;53063;39.614;8.814;2022-10-31T17:44:41;19.60;64.10
66271;DHT22;53063;39.614;8.814;2022-10-31T17:47:06;19.60;64.30
66271;DHT22;53063;39.614;8.814;2022-10-31T17:49:32;19.60;64.60
66271;DHT22;53063;39.614;8.814;2022-10-31T17:51:58;19.50;64.60
66271;DHT22;53063;39.614;8.814;2022-10-31T17:54:24;19.50;65.20
66271;DHT22;53063;39.614;8.814;2022-10-31T17:56:51;19.40;65.50
66271;DHT22;53063;39.614;8.814;2022-10-31T17:59:17;19.30;66.20
66271;DHT22;53063;39.614;8.814;2022-10-31T18:01:43;19.40;66.30
66271;DHT22;53063;39.614;8.814;2022-10-31T18:04:09;19.30;66.40
66271;DHT22;53063;39.614;8.814;2022-10-31T18:06:35;19.40;66.50
66271;DHT22;53063;39.614;8.814;2022-10-31T18:09:01;19.40;66.80